D70 weather

Honeoye Falls Airport
Honeoye Falls, New York, United States

Public forecast

Using degrees Fahrenheit for public forecast. Weather courtesy of forecast.io.

Closest aviation weather report (METAR) to Honeoye Falls Airport

Closest report is Greater Rochester International Airport, 10.8 nm (20.0 km) NNW. Retrieved 2019/10/23 08:54 UTC (45 minutes ago):

KROC 230854Z 21006KT 10SM -RA FEW048 BKN060 OVC075 09/07 A2983 RMK AO2 RAB44 SLP104 BINOVC P0000 60000 T00940067 51006

Closest aviation forecast (TAF) to Honeoye Falls Airport

Forecast is more than 6 hours old.

Closest forecast is Greater Rochester International Airport, 10.8 nm (20.0 km) NNW. Retrieved 2019-10-23 00:30 UTC (9 hours ago):

TAF KROC 222328Z 2300/2324 19007KT P6SM BKN060 BKN100 FM230200 22006KT P6SM -SHRA BKN050 FM230400 25006KT P6SM BKN080 FM231400 23011G18KT P6SM BKN040 FM231700 24016G25KT P6SM BKN045 FM231900 24018G28KT P6SM BKN070